sensor_id;sensor_type;location;lat;lon;timestamp;P1;durP1;ratioP1;P2;durP2;ratioP2
55718;SDS011;41623;46.104;19.656;2022-12-19T00:02:17;56.47;;;23.63;;
55718;SDS011;41623;46.104;19.656;2022-12-19T00:04:43;44.08;;;20.52;;
55718;SDS011;41623;46.104;19.656;2022-12-19T00:07:09;42.63;;;22.60;;
55718;SDS011;41623;46.104;19.656;2022-12-19T00:09:35;54.40;;;21.98;;
55718;SDS011;41623;46.104;19.656;2022-12-19T00:12:01;35.97;;;18.25;;
55718;SDS011;41623;46.104;19.656;2022-12-19T00:14:27;63.70;;;18.90;;
55718;SDS011;41623;46.104;19.656;2022-12-19T00:16:53;57.85;;;24.45;;
55718;SDS011;41623;46.104;19.656;2022-12-19T00:19:19;48.15;;;21.50;;
55718;SDS011;41623;46.104;19.656;2022-12-19T00:21:45;61.10;;;21.35;;
55718;SDS011;41623;46.104;19.656;2022-12-19T00:24:11;47.38;;;16.10;;
55718;SDS011;41623;46.104;19.656;2022-12-19T00:26:37;37.42;;;15.07;;
55718;SDS011;41623;46.104;19.656;2022-12-19T00:29:08;34.15;;;14.77;;
55718;SDS011;41623;46.104;19.656;2022-12-19T00:31:34;39.67;;;16.67;;
55718;SDS011;41623;46.104;19.656;2022-12-19T00:34:01;42.50;;;15.32;;
55718;SDS011;41623;46.104;19.656;2022-12-19T00:36:28;45.72;;;15.57;;
55718;SDS011;41623;46.104;19.656;2022-12-19T00:38:55;49.33;;;17.58;;
55718;SDS011;41623;46.104;19.656;2022-12-19T00:41:22;39.42;;;17.23;;
55718;SDS011;41623;46.104;19.656;2022-12-19T00:44:08;51.08;;;19.42;;
55718;SDS011;41623;46.104;19.656;2022-12-19T00:46:35;56.78;;;16.98;;
55718;SDS011;41623;46.104;19.656;2022-12-19T00:49:02;47.92;;;19.70;;
55718;SDS011;41623;46.104;19.656;2022-12-19T00:51:29;50.35;;;18.48;;
55718;SDS011;41623;46.104;19.656;2022-12-19T00:53:56;43.30;;;17.10;;
55718;SDS011;41623;46.104;19.656;2022-12-19T00:56:27;42.58;;;18.33;;
55718;SDS011;41623;46.104;19.656;2022-12-19T00:58:53;38.70;;;15.55;;
55718;SDS011;41623;46.104;19.656;2022-12-19T01:03:46;54.30;;;20.95;;
55718;SDS011;41623;46.104;19.656;2022-12-19T01:06:12;49.95;;;20.63;;
55718;SDS011;41623;46.104;19.656;2022-12-19T01:08:38;54.45;;;19.20;;
55718;SDS011;41623;46.104;19.656;2022-12-19T01:11:04;51.90;;;22.85;;
55718;SDS011;41623;46.104;19.656;2022-12-19T01:13:31;52.20;;;21.67;;
55718;SDS011;41623;46.104;19.656;2022-12-19T01:16:05;49.25;;;22.05;;
55718;SDS011;41623;46.104;19.656;2022-12-19T01:18:31;47.17;;;20.17;;
55718;SDS011;41623;46.104;19.656;2022-12-19T01:21:02;47.30;;;20.10;;
55718;SDS011;41623;46.104;19.656;2022-12-19T01:23:28;53.28;;;18.83;;
55718;SDS011;41623;46.104;19.656;2022-12-19T01:25:54;59.70;;;20.05;;
55718;SDS011;41623;46.104;19.656;2022-12-19T01:28:21;57.60;;;19.70;;
55718;SDS011;41623;46.104;19.656;2022-12-19T01:30:47;55.63;;;21.52;;
55718;SDS011;41623;46.104;19.656;2022-12-19T01:33:13;55.78;;;24.67;;
55718;SDS011;41623;46.104;19.656;2022-12-19T01:35:40;39.28;;;16.13;;
55718;SDS011;41623;46.104;19.656;2022-12-19T01:38:08;50.53;;;17.50;;
55718;SDS011;41623;46.104;19.656;2022-12-19T01:40:37;50.08;;;20.42;;
55718;SDS011;41623;46.104;19.656;2022-12-19T01:43:03;41.35;;;18.58;;
55718;SDS011;41623;46.104;19.656;2022-12-19T01:45:32;55.83;;;20.77;;
55718;SDS011;41623;46.104;19.656;2022-12-19T01:52:59;47.80;;;18.33;;
55718;SDS011;41623;46.104;19.656;2022-12-19T01:55:26;56.38;;;17.42;;
55718;SDS011;41623;46.104;19.656;2022-12-19T01:57:52;46.78;;;15.90;;
55718;SDS011;41623;46.104;19.656;2022-12-19T02:00:19;49.30;;;17.17;;
55718;SDS011;41623;46.104;19.656;2022-12-19T02:02:47;46.35;;;17.23;;
55718;SDS011;41623;46.104;19.656;2022-12-19T02:05:13;45.70;;;16.48;;
55718;SDS011;41623;46.104;19.656;2022-12-19T02:07:40;55.88;;;17.80;;
55718;SDS011;41623;46.104;19.656;2022-12-19T02:10:06;52.58;;;17.38;;
55718;SDS011;41623;46.104;19.656;2022-12-19T02:12:33;48.30;;;14.95;;
55718;SDS011;41623;46.104;19.656;2022-12-19T02:15:00;40.88;;;17.42;;
55718;SDS011;41623;46.104;19.656;2022-12-19T02:33:09;42.60;;;19.00;;
55718;SDS011;41623;46.104;19.656;2022-12-19T02:35:43;34.63;;;17.77;;
55718;SDS011;41623;46.104;19.656;2022-12-19T02:40:45;29.63;;;13.63;;
55718;SDS011;41623;46.104;19.656;2022-12-19T02:43:14;37.08;;;16.65;;
55718;SDS011;41623;46.104;19.656;2022-12-19T02:45:40;40.17;;;17.92;;
55718;SDS011;41623;46.104;19.656;2022-12-19T02:48:07;48.97;;;17.60;;
55718;SDS011;41623;46.104;19.656;2022-12-19T02:50:36;40.55;;;17.65;;
55718;SDS011;41623;46.104;19.656;2022-12-19T02:53:02;36.15;;;15.68;;
55718;SDS011;41623;46.104;19.656;2022-12-19T02:55:28;40.30;;;16.83;;
55718;SDS011;41623;46.104;19.656;2022-12-19T03:01:07;35.40;;;15.75;;
55718;SDS011;41623;46.104;19.656;2022-12-19T03:03:35;38.63;;;15.00;;
55718;SDS011;41623;46.104;19.656;2022-12-19T03:06:11;51.90;;;17.20;;
55718;SDS011;41623;46.104;19.656;2022-12-19T03:11:17;34.78;;;16.17;;
55718;SDS011;41623;46.104;19.656;2022-12-19T03:13:48;35.85;;;14.55;;
55718;SDS011;41623;46.104;19.656;2022-12-19T03:16:16;46.30;;;17.40;;
55718;SDS011;41623;46.104;19.656;2022-12-19T03:18:42;45.58;;;16.85;;
55718;SDS011;41623;46.104;19.656;2022-12-19T03:23:38;40.65;;;17.52;;
55718;SDS011;41623;46.104;19.656;2022-12-19T03:26:18;41.08;;;15.75;;
55718;SDS011;41623;46.104;19.656;2022-12-19T03:31:11;36.75;;;14.38;;
55718;SDS011;41623;46.104;19.656;2022-12-19T03:33:38;38.25;;;14.93;;
55718;SDS011;41623;46.104;19.656;2022-12-19T03:36:06;32.97;;;14.52;;
55718;SDS011;41623;46.104;19.656;2022-12-19T03:38:35;28.05;;;12.50;;
55718;SDS011;41623;46.104;19.656;2022-12-19T03:41:03;29.33;;;9.75;;
55718;SDS011;41623;46.104;19.656;2022-12-19T03:43:30;26.45;;;11.25;;
55718;SDS011;41623;46.104;19.656;2022-12-19T03:46:01;35.42;;;11.07;;
55718;SDS011;41623;46.104;19.656;2022-12-19T03:48:41;23.75;;;11.45;;
55718;SDS011;41623;46.104;19.656;2022-12-19T03:56:35;26.30;;;10.38;;
55718;SDS011;41623;46.104;19.656;2022-12-19T03:59:10;25.05;;;10.13;;
55718;SDS011;41623;46.104;19.656;2022-12-19T04:01:37;19.48;;;9.02;;
55718;SDS011;41623;46.104;19.656;2022-12-19T04:04:05;25.85;;;10.65;;
55718;SDS011;41623;46.104;19.656;2022-12-19T04:06:32;37.47;;;11.75;;
55718;SDS011;41623;46.104;19.656;2022-12-19T04:08:59;25.58;;;11.27;;
55718;SDS011;41623;46.104;19.656;2022-12-19T04:11:26;22.98;;;10.75;;
55718;SDS011;41623;46.104;19.656;2022-12-19T04:13:56;30.40;;;11.93;;
55718;SDS011;41623;46.104;19.656;2022-12-19T04:16:37;25.50;;;10.65;;
55718;SDS011;41623;46.104;19.656;2022-12-19T04:19:07;26.10;;;11.07;;
55718;SDS011;41623;46.104;19.656;2022-12-19T04:21:38;25.60;;;12.52;;
55718;SDS011;41623;46.104;19.656;2022-12-19T04:24:16;23.50;;;9.93;;
55718;SDS011;41623;46.104;19.656;2022-12-19T04:26:44;26.20;;;12.48;;
55718;SDS011;41623;46.104;19.656;2022-12-19T04:29:11;26.98;;;10.50;;
55718;SDS011;41623;46.104;19.656;2022-12-19T04:31:38;28.45;;;11.43;;
55718;SDS011;41623;46.104;19.656;2022-12-19T04:34:05;29.80;;;10.80;;
55718;SDS011;41623;46.104;19.656;2022-12-19T04:36:31;31.23;;;12.93;;
55718;SDS011;41623;46.104;19.656;2022-12-19T04:38:57;37.75;;;12.73;;
55718;SDS011;41623;46.104;19.656;2022-12-19T04:41:23;31.60;;;11.35;;
55718;SDS011;41623;46.104;19.656;2022-12-19T04:43:49;25.80;;;11.02;;
55718;SDS011;41623;46.104;19.656;2022-12-19T04:46:15;36.05;;;10.70;;
55718;SDS011;41623;46.104;19.656;2022-12-19T04:48:41;24.33;;;11.38;;
55718;SDS011;41623;46.104;19.656;2022-12-19T04:51:07;32.60;;;11.57;;
55718;SDS011;41623;46.104;19.656;2022-12-19T04:53:33;30.15;;;12.55;;
55718;SDS011;41623;46.104;19.656;2022-12-19T04:56:00;33.35;;;10.60;;
55718;SDS011;41623;46.104;19.656;2022-12-19T04:58:26;34.53;;;11.52;;
55718;SDS011;41623;46.104;19.656;2022-12-19T05:00:52;20.98;;;10.02;;
55718;SDS011;41623;46.104;19.656;2022-12-19T05:03:19;15.93;;;7.20;;
55718;SDS011;41623;46.104;19.656;2022-12-19T05:05:45;17.08;;;9.07;;
55718;SDS011;41623;46.104;19.656;2022-12-19T05:08:11;18.63;;;8.00;;
55718;SDS011;41623;46.104;19.656;2022-12-19T05:10:37;17.50;;;7.80;;
55718;SDS011;41623;46.104;19.656;2022-12-19T05:13:03;17.50;;;7.80;;
55718;SDS011;41623;46.104;19.656;2022-12-19T05:15:29;22.95;;;7.90;;
55718;SDS011;41623;46.104;19.656;2022-12-19T05:17:56;15.82;;;7.70;;
55718;SDS011;41623;46.104;19.656;2022-12-19T05:20:22;14.55;;;7.45;;
55718;SDS011;41623;46.104;19.656;2022-12-19T05:22:48;15.65;;;7.88;;
55718;SDS011;41623;46.104;19.656;2022-12-19T05:25:14;23.77;;;7.95;;
55718;SDS011;41623;46.104;19.656;2022-12-19T05:27:40;24.92;;;8.10;;
55718;SDS011;41623;46.104;19.656;2022-12-19T05:30:06;15.93;;;7.95;;
55718;SDS011;41623;46.104;19.656;2022-12-19T05:32:32;19.45;;;8.85;;
55718;SDS011;41623;46.104;19.656;2022-12-19T05:34:58;27.55;;;10.68;;
55718;SDS011;41623;46.104;19.656;2022-12-19T05:37:25;20.17;;;9.07;;
55718;SDS011;41623;46.104;19.656;2022-12-19T05:39:51;20.23;;;9.18;;
55718;SDS011;41623;46.104;19.656;2022-12-19T05:42:17;24.10;;;11.07;;
55718;SDS011;41623;46.104;19.656;2022-12-19T05:44:43;20.92;;;8.27;;
55718;SDS011;41623;46.104;19.656;2022-12-19T05:47:09;30.48;;;11.20;;
55718;SDS011;41623;46.104;19.656;2022-12-19T05:49:35;16.85;;;8.77;;
55718;SDS011;41623;46.104;19.656;2022-12-19T05:52:01;18.60;;;8.50;;
55718;SDS011;41623;46.104;19.656;2022-12-19T05:54:28;20.58;;;7.65;;
55718;SDS011;41623;46.104;19.656;2022-12-19T05:56:54;23.95;;;9.10;;
55718;SDS011;41623;46.104;19.656;2022-12-19T05:59:20;18.88;;;8.25;;
55718;SDS011;41623;46.104;19.656;2022-12-19T06:01:46;21.10;;;7.80;;
55718;SDS011;41623;46.104;19.656;2022-12-19T06:04:12;9.40;;;5.90;;
55718;SDS011;41623;46.104;19.656;2022-12-19T06:06:38;21.55;;;6.95;;
55718;SDS011;41623;46.104;19.656;2022-12-19T06:09:04;12.98;;;6.30;;
55718;SDS011;41623;46.104;19.656;2022-12-19T06:11:30;14.45;;;7.72;;
55718;SDS011;41623;46.104;19.656;2022-12-19T06:13:56;11.68;;;7.55;;
55718;SDS011;41623;46.104;19.656;2022-12-19T06:16:22;12.23;;;6.00;;
55718;SDS011;41623;46.104;19.656;2022-12-19T06:18:48;15.68;;;8.45;;
55718;SDS011;41623;46.104;19.656;2022-12-19T06:21:16;30.80;;;10.63;;
55718;SDS011;41623;46.104;19.656;2022-12-19T06:23:42;25.50;;;9.57;;
55718;SDS011;41623;46.104;19.656;2022-12-19T06:26:09;17.45;;;6.78;;
55718;SDS011;41623;46.104;19.656;2022-12-19T06:28:36;18.25;;;7.88;;
55718;SDS011;41623;46.104;19.656;2022-12-19T06:31:03;7.82;;;5.53;;
55718;SDS011;41623;46.104;19.656;2022-12-19T06:33:29;12.30;;;6.75;;
55718;SDS011;41623;46.104;19.656;2022-12-19T06:35:56;9.05;;;2.72;;
55718;SDS011;41623;46.104;19.656;2022-12-19T06:38:23;11.45;;;5.32;;
55718;SDS011;41623;46.104;19.656;2022-12-19T06:40:49;16.02;;;8.13;;
55718;SDS011;41623;46.104;19.656;2022-12-19T06:43:34;19.83;;;6.05;;
55718;SDS011;41623;46.104;19.656;2022-12-19T06:46:00;15.55;;;6.55;;
55718;SDS011;41623;46.104;19.656;2022-12-19T06:48:26;23.90;;;9.32;;
55718;SDS011;41623;46.104;19.656;2022-12-19T06:50:52;23.85;;;9.85;;
55718;SDS011;41623;46.104;19.656;2022-12-19T06:53:19;14.25;;;6.50;;
55718;SDS011;41623;46.104;19.656;2022-12-19T06:55:45;24.27;;;7.97;;
55718;SDS011;41623;46.104;19.656;2022-12-19T06:58:12;13.07;;;7.97;;
55718;SDS011;41623;46.104;19.656;2022-12-19T07:00:38;17.77;;;6.78;;
55718;SDS011;41623;46.104;19.656;2022-12-19T07:03:04;15.15;;;8.02;;
55718;SDS011;41623;46.104;19.656;2022-12-19T07:05:32;16.88;;;8.93;;
55718;SDS011;41623;46.104;19.656;2022-12-19T07:07:59;17.17;;;6.40;;
55718;SDS011;41623;46.104;19.656;2022-12-19T07:10:25;17.88;;;7.15;;
55718;SDS011;41623;46.104;19.656;2022-12-19T07:12:51;17.92;;;5.93;;
55718;SDS011;41623;46.104;19.656;2022-12-19T07:15:17;21.45;;;7.60;;
55718;SDS011;41623;46.104;19.656;2022-12-19T07:17:43;20.77;;;8.30;;
55718;SDS011;41623;46.104;19.656;2022-12-19T07:20:09;14.43;;;8.18;;
55718;SDS011;41623;46.104;19.656;2022-12-19T07:22:35;17.88;;;7.90;;
55718;SDS011;41623;46.104;19.656;2022-12-19T07:25:02;9.02;;;5.43;;
55718;SDS011;41623;46.104;19.656;2022-12-19T07:27:30;9.82;;;5.65;;
55718;SDS011;41623;46.104;19.656;2022-12-19T07:29:56;16.75;;;6.05;;
55718;SDS011;41623;46.104;19.656;2022-12-19T07:32:22;19.27;;;7.05;;
55718;SDS011;41623;46.104;19.656;2022-12-19T07:34:48;8.68;;;5.80;;
55718;SDS011;41623;46.104;19.656;2022-12-19T07:37:14;15.07;;;5.68;;
55718;SDS011;41623;46.104;19.656;2022-12-19T07:39:41;11.75;;;5.22;;
55718;SDS011;41623;46.104;19.656;2022-12-19T07:42:07;10.10;;;4.95;;
55718;SDS011;41623;46.104;19.656;2022-12-19T07:44:33;7.55;;;4.68;;
55718;SDS011;41623;46.104;19.656;2022-12-19T07:46:59;11.85;;;5.57;;
55718;SDS011;41623;46.104;19.656;2022-12-19T07:49:25;14.07;;;7.63;;
55718;SDS011;41623;46.104;19.656;2022-12-19T07:51:51;14.68;;;6.97;;
55718;SDS011;41623;46.104;19.656;2022-12-19T07:54:17;17.00;;;7.57;;
55718;SDS011;41623;46.104;19.656;2022-12-19T07:56:43;11.32;;;6.03;;
55718;SDS011;41623;46.104;19.656;2022-12-19T07:59:10;17.52;;;7.25;;
55718;SDS011;41623;46.104;19.656;2022-12-19T08:01:37;18.75;;;6.57;;
55718;SDS011;41623;46.104;19.656;2022-12-19T08:04:03;13.77;;;4.93;;
55718;SDS011;41623;46.104;19.656;2022-12-19T08:06:29;12.95;;;5.03;;
55718;SDS011;41623;46.104;19.656;2022-12-19T08:08:55;6.88;;;3.05;;
55718;SDS011;41623;46.104;19.656;2022-12-19T08:11:21;6.95;;;4.75;;
55718;SDS011;41623;46.104;19.656;2022-12-19T08:13:51;17.27;;;6.50;;
55718;SDS011;41623;46.104;19.656;2022-12-19T08:16:18;9.52;;;5.50;;
55718;SDS011;41623;46.104;19.656;2022-12-19T08:18:44;11.13;;;5.15;;
55718;SDS011;41623;46.104;19.656;2022-12-19T08:21:10;9.20;;;5.38;;
55718;SDS011;41623;46.104;19.656;2022-12-19T08:23:36;6.55;;;3.78;;
55718;SDS011;41623;46.104;19.656;2022-12-19T08:26:07;8.48;;;4.35;;
55718;SDS011;41623;46.104;19.656;2022-12-19T08:28:33;9.30;;;4.20;;
55718;SDS011;41623;46.104;19.656;2022-12-19T08:31:07;7.60;;;3.30;;
55718;SDS011;41623;46.104;19.656;2022-12-19T08:33:33;18.05;;;5.82;;
55718;SDS011;41623;46.104;19.656;2022-12-19T08:36:04;11.50;;;4.60;;
55718;SDS011;41623;46.104;19.656;2022-12-19T08:38:30;6.72;;;3.88;;
55718;SDS011;41623;46.104;19.656;2022-12-19T08:40:56;18.38;;;6.97;;
55718;SDS011;41623;46.104;19.656;2022-12-19T08:43:22;6.78;;;3.72;;
55718;SDS011;41623;46.104;19.656;2022-12-19T08:45:48;7.53;;;5.00;;
55718;SDS011;41623;46.104;19.656;2022-12-19T08:48:15;14.50;;;5.35;;
55718;SDS011;41623;46.104;19.656;2022-12-19T08:50:56;8.68;;;4.78;;
55718;SDS011;41623;46.104;19.656;2022-12-19T08:53:23;5.88;;;3.15;;
55718;SDS011;41623;46.104;19.656;2022-12-19T08:56:00;10.02;;;4.13;;
55718;SDS011;41623;46.104;19.656;2022-12-19T08:58:27;16.10;;;6.68;;
55718;SDS011;41623;46.104;19.656;2022-12-19T09:00:53;7.32;;;3.90;;
55718;SDS011;41623;46.104;19.656;2022-12-19T09:03:20;6.43;;;3.50;;
55718;SDS011;41623;46.104;19.656;2022-12-19T09:05:56;3.42;;;1.95;;
55718;SDS011;41623;46.104;19.656;2022-12-19T09:08:22;5.70;;;3.42;;
55718;SDS011;41623;46.104;19.656;2022-12-19T09:10:48;5.22;;;2.55;;
55718;SDS011;41623;46.104;19.656;2022-12-19T09:13:14;12.38;;;5.53;;
55718;SDS011;41623;46.104;19.656;2022-12-19T09:15:40;10.60;;;5.32;;
55718;SDS011;41623;46.104;19.656;2022-12-19T09:18:06;3.83;;;2.50;;
55718;SDS011;41623;46.104;19.656;2022-12-19T09:20:33;2.08;;;1.80;;
55718;SDS011;41623;46.104;19.656;2022-12-19T09:22:59;9.00;;;4.60;;
55718;SDS011;41623;46.104;19.656;2022-12-19T09:25:25;7.30;;;4.57;;
55718;SDS011;41623;46.104;19.656;2022-12-19T09:27:51;10.02;;;4.45;;
55718;SDS011;41623;46.104;19.656;2022-12-19T09:30:17;16.88;;;5.30;;
55718;SDS011;41623;46.104;19.656;2022-12-19T09:32:43;6.60;;;3.70;;
55718;SDS011;41623;46.104;19.656;2022-12-19T09:35:09;12.20;;;5.93;;
55718;SDS011;41623;46.104;19.656;2022-12-19T09:37:36;9.95;;;4.88;;
55718;SDS011;41623;46.104;19.656;2022-12-19T09:40:02;6.32;;;3.17;;
55718;SDS011;41623;46.104;19.656;2022-12-19T09:42:34;8.90;;;4.30;;
55718;SDS011;41623;46.104;19.656;2022-12-19T09:45:07;11.60;;;4.90;;
55718;SDS011;41623;46.104;19.656;2022-12-19T09:47:36;12.47;;;6.50;;
55718;SDS011;41623;46.104;19.656;2022-12-19T09:50:04;7.60;;;4.20;;
55718;SDS011;41623;46.104;19.656;2022-12-19T09:52:39;11.63;;;4.60;;
55718;SDS011;41623;46.104;19.656;2022-12-19T09:55:18;6.45;;;3.92;;
55718;SDS011;41623;46.104;19.656;2022-12-19T10:00:11;7.65;;;3.25;;
55718;SDS011;41623;46.104;19.656;2022-12-19T10:18:41;13.48;;;5.25;;
55718;SDS011;41623;46.104;19.656;2022-12-19T10:21:12;5.38;;;2.88;;
55718;SDS011;41623;46.104;19.656;2022-12-19T10:23:53;12.27;;;4.13;;
55718;SDS011;41623;46.104;19.656;2022-12-19T10:26:26;7.50;;;3.92;;
55718;SDS011;41623;46.104;19.656;2022-12-19T10:31:29;12.98;;;5.85;;
55718;SDS011;41623;46.104;19.656;2022-12-19T10:36:43;14.68;;;6.35;;
55718;SDS011;41623;46.104;19.656;2022-12-19T10:41:55;14.05;;;4.13;;
55718;SDS011;41623;46.104;19.656;2022-12-19T10:44:24;14.35;;;6.22;;
55718;SDS011;41623;46.104;19.656;2022-12-19T10:46:52;7.80;;;5.47;;
55718;SDS011;41623;46.104;19.656;2022-12-19T10:49:20;13.57;;;4.95;;
55718;SDS011;41623;46.104;19.656;2022-12-19T10:54:18;17.00;;;6.15;;
55718;SDS011;41623;46.104;19.656;2022-12-19T10:56:45;10.70;;;4.55;;
55718;SDS011;41623;46.104;19.656;2022-12-19T10:59:14;8.32;;;4.78;;
55718;SDS011;41623;46.104;19.656;2022-12-19T11:01:41;16.55;;;5.80;;
55718;SDS011;41623;46.104;19.656;2022-12-19T11:06:50;17.13;;;6.82;;
55718;SDS011;41623;46.104;19.656;2022-12-19T11:09:35;11.73;;;5.95;;
55718;SDS011;41623;46.104;19.656;2022-12-19T11:14:31;14.95;;;5.88;;
55718;SDS011;41623;46.104;19.656;2022-12-19T11:16:58;17.77;;;7.43;;
55718;SDS011;41623;46.104;19.656;2022-12-19T11:21:50;19.13;;;5.50;;
55718;SDS011;41623;46.104;19.656;2022-12-19T11:24:38;20.58;;;6.80;;
55718;SDS011;41623;46.104;19.656;2022-12-19T11:27:02;12.60;;;5.03;;
55718;SDS011;41623;46.104;19.656;2022-12-19T11:31:56;6.40;;;3.90;;
55718;SDS011;41623;46.104;19.656;2022-12-19T11:34:23;18.92;;;6.68;;
55718;SDS011;41623;46.104;19.656;2022-12-19T11:39:21;14.38;;;6.97;;
55718;SDS011;41623;46.104;19.656;2022-12-19T11:41:56;15.80;;;5.80;;
55718;SDS011;41623;46.104;19.656;2022-12-19T11:44:35;15.55;;;5.65;;
55718;SDS011;41623;46.104;19.656;2022-12-19T11:57:09;5.15;;;3.05;;
55718;SDS011;41623;46.104;19.656;2022-12-19T11:59:37;5.53;;;2.80;;
55718;SDS011;41623;46.104;19.656;2022-12-19T12:06:55;7.60;;;4.07;;
55718;SDS011;41623;46.104;19.656;2022-12-19T12:30:29;4.50;;;3.17;;
55718;SDS011;41623;46.104;19.656;2022-12-19T12:35:43;5.30;;;1.58;;
55718;SDS011;41623;46.104;19.656;2022-12-19T12:45:56;10.50;;;4.38;;
55718;SDS011;41623;46.104;19.656;2022-12-19T12:51:21;2.75;;;2.25;;
55718;SDS011;41623;46.104;19.656;2022-12-19T12:53:48;18.23;;;5.15;;
55718;SDS011;41623;46.104;19.656;2022-12-19T12:56:15;4.07;;;3.67;;
55718;SDS011;41623;46.104;19.656;2022-12-19T13:11:44;3.60;;;2.20;;
55718;SDS011;41623;46.104;19.656;2022-12-19T13:17:02;7.25;;;2.65;;
55718;SDS011;41623;46.104;19.656;2022-12-19T13:19:29;7.15;;;3.30;;
55718;SDS011;41623;46.104;19.656;2022-12-19T13:32:18;2.40;;;2.15;;
55718;SDS011;41623;46.104;19.656;2022-12-19T13:37:49;5.72;;;2.65;;
55718;SDS011;41623;46.104;19.656;2022-12-19T13:40:23;3.55;;;2.20;;
55718;SDS011;41623;46.104;19.656;2022-12-19T13:42:57;4.70;;;2.55;;
55718;SDS011;41623;46.104;19.656;2022-12-19T13:45:47;7.22;;;3.60;;
55718;SDS011;41623;46.104;19.656;2022-12-19T13:48:15;8.07;;;3.97;;
55718;SDS011;41623;46.104;19.656;2022-12-19T13:50:42;12.23;;;4.30;;
55718;SDS011;41623;46.104;19.656;2022-12-19T13:53:18;5.03;;;3.58;;
55718;SDS011;41623;46.104;19.656;2022-12-19T13:55:44;2.05;;;1.73;;
55718;SDS011;41623;46.104;19.656;2022-12-19T13:58:21;8.02;;;3.40;;
55718;SDS011;41623;46.104;19.656;2022-12-19T14:00:47;2.60;;;1.65;;
55718;SDS011;41623;46.104;19.656;2022-12-19T14:03:15;5.40;;;3.22;;
55718;SDS011;41623;46.104;19.656;2022-12-19T14:05:42;2.30;;;2.03;;
55718;SDS011;41623;46.104;19.656;2022-12-19T14:08:08;4.93;;;2.40;;
55718;SDS011;41623;46.104;19.656;2022-12-19T14:10:35;3.67;;;2.63;;
55718;SDS011;41623;46.104;19.656;2022-12-19T14:13:04;8.88;;;4.63;;
55718;SDS011;41623;46.104;19.656;2022-12-19T14:15:49;14.73;;;4.97;;
55718;SDS011;41623;46.104;19.656;2022-12-19T14:18:20;7.25;;;4.15;;
55718;SDS011;41623;46.104;19.656;2022-12-19T14:20:47;3.80;;;3.17;;
55718;SDS011;41623;46.104;19.656;2022-12-19T14:23:14;4.53;;;3.08;;
55718;SDS011;41623;46.104;19.656;2022-12-19T14:25:41;9.65;;;4.05;;
55718;SDS011;41623;46.104;19.656;2022-12-19T14:28:17;4.90;;;2.97;;
55718;SDS011;41623;46.104;19.656;2022-12-19T14:30:45;2.83;;;1.92;;
55718;SDS011;41623;46.104;19.656;2022-12-19T14:33:14;9.77;;;4.63;;
55718;SDS011;41623;46.104;19.656;2022-12-19T14:35:45;5.75;;;3.72;;
55718;SDS011;41623;46.104;19.656;2022-12-19T14:38:14;5.13;;;2.97;;
55718;SDS011;41623;46.104;19.656;2022-12-19T14:40:41;7.10;;;3.90;;
55718;SDS011;41623;46.104;19.656;2022-12-19T14:43:14;4.32;;;2.60;;
55718;SDS011;41623;46.104;19.656;2022-12-19T14:51:18;10.73;;;3.35;;
55718;SDS011;41623;46.104;19.656;2022-12-19T14:54:03;7.75;;;3.78;;
55718;SDS011;41623;46.104;19.656;2022-12-19T14:56:32;4.53;;;3.00;;
55718;SDS011;41623;46.104;19.656;2022-12-19T14:58:58;8.70;;;4.95;;
55718;SDS011;41623;46.104;19.656;2022-12-19T15:01:28;7.38;;;3.67;;
55718;SDS011;41623;46.104;19.656;2022-12-19T15:03:59;7.30;;;3.80;;
55718;SDS011;41623;46.104;19.656;2022-12-19T15:06:26;20.00;;;5.55;;
55718;SDS011;41623;46.104;19.656;2022-12-19T15:08:55;9.52;;;5.30;;
55718;SDS011;41623;46.104;19.656;2022-12-19T15:11:23;9.73;;;4.25;;
55718;SDS011;41623;46.104;19.656;2022-12-19T15:14:09;6.88;;;3.35;;
55718;SDS011;41623;46.104;19.656;2022-12-19T15:16:35;6.03;;;3.10;;
55718;SDS011;41623;46.104;19.656;2022-12-19T15:19:02;4.68;;;2.55;;
55718;SDS011;41623;46.104;19.656;2022-12-19T15:21:30;9.48;;;4.63;;
55718;SDS011;41623;46.104;19.656;2022-12-19T15:23:56;6.03;;;3.50;;
55718;SDS011;41623;46.104;19.656;2022-12-19T15:26:33;11.02;;;5.85;;
55718;SDS011;41623;46.104;19.656;2022-12-19T15:29:00;11.77;;;3.55;;
55718;SDS011;41623;46.104;19.656;2022-12-19T15:31:44;11.75;;;5.97;;
55718;SDS011;41623;46.104;19.656;2022-12-19T15:34:23;8.75;;;4.80;;
55718;SDS011;41623;46.104;19.656;2022-12-19T15:36:50;5.07;;;3.58;;
55718;SDS011;41623;46.104;19.656;2022-12-19T15:39:16;8.05;;;3.88;;
55718;SDS011;41623;46.104;19.656;2022-12-19T15:41:43;11.25;;;3.47;;
55718;SDS011;41623;46.104;19.656;2022-12-19T15:44:29;7.90;;;3.63;;
55718;SDS011;41623;46.104;19.656;2022-12-19T15:46:56;9.10;;;6.03;;
55718;SDS011;41623;46.104;19.656;2022-12-19T15:49:22;7.85;;;3.38;;
55718;SDS011;41623;46.104;19.656;2022-12-19T15:51:48;8.20;;;4.20;;
55718;SDS011;41623;46.104;19.656;2022-12-19T15:54:14;6.22;;;3.75;;
55718;SDS011;41623;46.104;19.656;2022-12-19T15:56:58;7.82;;;3.85;;
55718;SDS011;41623;46.104;19.656;2022-12-19T15:59:26;5.18;;;2.72;;
55718;SDS011;41623;46.104;19.656;2022-12-19T16:01:53;4.00;;;2.47;;
55718;SDS011;41623;46.104;19.656;2022-12-19T16:04:20;10.35;;;4.93;;
55718;SDS011;41623;46.104;19.656;2022-12-19T16:06:47;11.40;;;3.97;;
55718;SDS011;41623;46.104;19.656;2022-12-19T16:09:18;11.05;;;4.47;;
55718;SDS011;41623;46.104;19.656;2022-12-19T16:11:45;7.97;;;2.80;;
55718;SDS011;41623;46.104;19.656;2022-12-19T16:14:11;6.18;;;2.55;;
55718;SDS011;41623;46.104;19.656;2022-12-19T16:16:38;6.78;;;2.88;;
55718;SDS011;41623;46.104;19.656;2022-12-19T16:19:25;4.97;;;2.92;;
55718;SDS011;41623;46.104;19.656;2022-12-19T16:21:50;4.60;;;3.10;;
55718;SDS011;41623;46.104;19.656;2022-12-19T16:24:17;8.35;;;4.15;;
55718;SDS011;41623;46.104;19.656;2022-12-19T16:26:43;10.30;;;4.03;;
55718;SDS011;41623;46.104;19.656;2022-12-19T16:29:23;6.55;;;3.45;;
55718;SDS011;41623;46.104;19.656;2022-12-19T16:31:50;9.93;;;3.53;;
55718;SDS011;41623;46.104;19.656;2022-12-19T16:34:17;5.20;;;3.75;;
55718;SDS011;41623;46.104;19.656;2022-12-19T16:36:44;9.32;;;4.07;;
55718;SDS011;41623;46.104;19.656;2022-12-19T16:39:10;12.20;;;4.95;;
55718;SDS011;41623;46.104;19.656;2022-12-19T16:41:38;14.38;;;5.13;;
55718;SDS011;41623;46.104;19.656;2022-12-19T16:44:08;12.45;;;4.88;;
55718;SDS011;41623;46.104;19.656;2022-12-19T16:46:37;10.18;;;4.70;;
55718;SDS011;41623;46.104;19.656;2022-12-19T16:49:04;10.77;;;4.60;;
55718;SDS011;41623;46.104;19.656;2022-12-19T16:51:34;5.35;;;3.42;;
55718;SDS011;41623;46.104;19.656;2022-12-19T16:54:00;5.72;;;3.10;;
55718;SDS011;41623;46.104;19.656;2022-12-19T16:56:30;11.68;;;5.07;;
55718;SDS011;41623;46.104;19.656;2022-12-19T16:58:58;8.65;;;4.75;;
55718;SDS011;41623;46.104;19.656;2022-12-19T17:01:25;6.38;;;3.67;;
55718;SDS011;41623;46.104;19.656;2022-12-19T17:03:51;6.30;;;3.53;;
55718;SDS011;41623;46.104;19.656;2022-12-19T17:06:18;12.00;;;4.75;;
55718;SDS011;41623;46.104;19.656;2022-12-19T17:08:45;10.80;;;4.22;;
55718;SDS011;41623;46.104;19.656;2022-12-19T17:11:21;10.15;;;4.82;;
55718;SDS011;41623;46.104;19.656;2022-12-19T17:13:48;22.35;;;3.83;;
55718;SDS011;41623;46.104;19.656;2022-12-19T17:16:16;11.68;;;4.47;;